Time;durP1;ratioP1;P1;durP2;ratioP2;P2;SDS_P1;SDS_P2;PMS_P1;PMS_P2;Temp;Humidity;BMP_temperature;BMP_pressure;BME280_temperature;BME280_humidity;BME280_pressure;Samples;Min_cycle;Max_cycle;Signal;HPM_P1;HPM_P2
2022/12/06 00:02:15;;;;;;;23.60;11.57;;;5.30;99.90;;;;;;5016894;28;20520;-82
2022/12/06 00:04:42;;;;;;;20.55;12.32;;;5.30;99.90;;;;;;5009821;28;20410;-82
2022/12/06 00:07:10;;;;;;;21.23;12.45;;;5.30;99.90;;;;;;5008569;28;20042;-82
2022/12/06 00:09:38;;;;;;;23.50;12.18;;;5.30;99.90;;;;;;5009802;28;20065;-82
2022/12/06 00:12:05;;;;;;;21.80;12.30;;;5.60;99.90;;;;;;5005641;28;20045;-82
2022/12/06 00:14:32;;;;;;;23.63;13.10;;;5.30;99.90;;;;;;5017833;28;20556;-82
2022/12/06 00:16:59;;;;;;;19.83;11.80;;;5.30;99.90;;;;;;5009763;28;20042;-82
2022/12/06 00:19:26;;;;;;;22.67;12.43;;;5.30;99.90;;;;;;5011821;28;20041;-82
2022/12/06 00:21:53;;;;;;;22.27;12.50;;;5.40;99.90;;;;;;5024316;28;20067;-82
2022/12/06 00:24:21;;;;;;;22.77;12.15;;;5.30;99.90;;;;;;5008161;28;20065;-82
2022/12/06 00:26:50;;;;;;;24.08;12.57;;;5.40;99.90;;;;;;5009544;28;20034;-82
2022/12/06 00:29:19;;;;;;;26.45;13.55;;;5.40;99.90;;;;;;5008374;28;20034;-82
2022/12/06 00:31:46;;;;;;;23.85;12.07;;;5.30;99.90;;;;;;5019157;28;20433;-82
2022/12/06 00:34:13;;;;;;;25.00;13.07;;;5.40;99.90;;;;;;5020665;28;20053;-82
2022/12/06 00:36:42;;;;;;;26.35;12.98;;;5.30;99.90;;;;;;5008272;28;20508;-82
2022/12/06 00:39:11;;;;;;;24.00;12.90;;;5.30;99.90;;;;;;5010279;28;20069;-82
2022/12/06 00:41:38;;;;;;;25.23;13.45;;;5.30;99.90;;;;;;5010368;28;20053;-82
2022/12/06 00:44:06;;;;;;;25.23;13.02;;;5.30;99.90;;;;;;5010415;28;20112;-82
2022/12/06 00:46:34;;;;;;;24.77;12.88;;;5.30;99.90;;;;;;5015867;28;20046;-82
2022/12/06 00:49:03;;;;;;;23.23;12.93;;;5.30;99.90;;;;;;5014655;28;20053;-82
2022/12/06 00:51:31;;;;;;;24.27;12.20;;;5.30;99.90;;;;;;5009520;28;20046;-82
2022/12/06 00:53:59;;;;;;;22.75;12.75;;;5.30;99.90;;;;;;5008521;28;20088;-82
2022/12/06 00:56:27;;;;;;;24.38;13.10;;;5.30;99.90;;;;;;5008764;28;20038;-82
2022/12/06 00:58:53;;;;;;;24.83;13.43;;;5.30;99.90;;;;;;5014404;28;20045;-82
2022/12/06 01:01:24;;;;;;;24.92;12.45;;;5.30;99.90;;;;;;5023245;28;20048;-82
2022/12/06 01:03:52;;;;;;;22.50;12.30;;;5.30;99.90;;;;;;5008456;28;20034;-82
2022/12/06 01:06:21;;;;;;;22.17;12.63;;;5.30;99.90;;;;;;5008272;28;20054;-82
2022/12/06 01:08:49;;;;;;;23.35;13.02;;;5.30;99.90;;;;;;5012380;28;20037;-82
2022/12/06 01:11:16;;;;;;;22.38;12.05;;;5.30;99.90;;;;;;5010929;28;20049;-82
2022/12/06 01:13:44;;;;;;;19.98;11.82;;;5.30;99.90;;;;;;5021475;28;20038;-82
2022/12/06 01:16:12;;;;;;;19.98;11.85;;;5.50;99.90;;;;;;5051254;23;20065;-81
2022/12/06 01:18:41;;;;;;;22.88;12.32;;;5.30;99.90;;;;;;5196091;23;20051;-80
2022/12/06 01:21:14;;;;;;;22.25;12.38;;;5.30;99.90;;;;;;5052726;28;20053;-80
2022/12/06 01:23:41;;;;;;;22.02;12.55;;;5.30;99.90;;;;;;5051471;28;20045;-80
2022/12/06 01:26:14;;;;;;;21.30;12.57;;;5.30;99.90;;;;;;5052507;28;20045;-80
2022/12/06 01:28:41;;;;;;;17.95;10.90;;;5.30;99.90;;;;;;5051512;28;20047;-80
2022/12/06 01:31:08;;;;;;;22.77;11.27;;;5.30;99.90;;;;;;5052530;28;20047;-80
2022/12/06 01:33:35;;;;;;;19.02;11.00;;;5.30;99.90;;;;;;5051566;28;20063;-80
2022/12/06 01:36:04;;;;;;;19.77;11.75;;;5.30;99.90;;;;;;5052539;28;20071;-80
2022/12/06 01:38:31;;;;;;;19.02;11.00;;;5.30;99.90;;;;;;5051775;28;20124;-80
2022/12/06 01:40:57;;;;;;;20.52;11.07;;;5.40;99.90;;;;;;5052188;28;20531;-80
2022/12/06 01:43:36;;;;;;;17.83;11.05;;;5.40;99.90;;;;;;5033452;28;20433;-80
2022/12/06 01:46:10;;;;;;;17.30;10.10;;;5.40;99.90;;;;;;5038819;28;20412;-80
2022/12/06 01:48:37;;;;;;;18.55;10.77;;;5.40;99.90;;;;;;5038157;23;20136;-78
2022/12/06 01:51:07;;;;;;;18.55;10.68;;;5.40;99.90;;;;;;5010007;28;20045;-78
2022/12/06 01:53:34;;;;;;;19.05;10.60;;;5.40;99.90;;;;;;5011418;28;20056;-78
2022/12/06 01:56:01;;;;;;;21.50;11.20;;;5.40;99.90;;;;;;5011361;28;20056;-78
2022/12/06 01:58:31;;;;;;;18.23;10.82;;;5.40;99.90;;;;;;5012211;28;20406;-78
2022/12/06 02:00:58;;;;;;;19.23;10.50;;;5.40;99.90;;;;;;5010814;28;20406;-78
2022/12/06 02:03:28;;;;;;;17.83;10.50;;;5.40;99.90;;;;;;5011634;28;20038;-79
2022/12/06 02:05:58;;;;;;;20.27;10.73;;;5.40;99.90;;;;;;5010848;28;20748;-79
2022/12/06 02:08:28;;;;;;;20.98;11.68;;;5.40;99.90;;;;;;5011827;28;20288;-79
2022/12/06 02:10:55;;;;;;;18.90;11.07;;;5.40;99.90;;;;;;5012025;28;20056;-79
2022/12/06 02:13:25;;;;;;;21.08;11.95;;;5.40;99.90;;;;;;5011908;28;20050;-79
2022/12/06 02:15:57;;;;;;;21.02;11.68;;;5.40;99.90;;;;;;5011622;28;20049;-79
2022/12/06 02:18:31;;;;;;;20.58;11.35;;;5.40;99.90;;;;;;5009864;28;20502;-79
2022/12/06 02:21:05;;;;;;;22.42;11.07;;;5.40;99.90;;;;;;5011531;28;20052;-79
2022/12/06 02:24:05;;;;;;;23.80;12.50;;;5.40;99.90;;;;;;5011099;28;20052;-79
2022/12/06 02:26:37;;;;;;;25.02;11.77;;;5.40;99.90;;;;;;5011587;28;20897;-79
2022/12/06 02:29:24;;;;;;;21.90;11.75;;;5.40;99.90;;;;;;5009964;28;20042;-79
2022/12/06 02:31:56;;;;;;;21.25;12.02;;;5.40;99.90;;;;;;5009678;28;20065;-79
2022/12/06 02:34:26;;;;;;;;;;;5.30;99.90;;;;;;5008419;28;20050;-79
2022/12/06 02:36:57;;;;;;;26.80;11.95;;;5.40;99.90;;;;;;5007594;28;19932;-79
2022/12/06 02:39:27;;;;;;;23.67;12.32;;;5.40;99.90;;;;;;5010727;28;20095;-79
2022/12/06 02:41:58;;;;;;;27.67;13.43;;;5.40;99.90;;;;;;5011542;28;20045;-79
2022/12/06 02:44:28;;;;;;;26.27;12.52;;;5.40;99.90;;;;;;5009865;28;20120;-78
2022/12/06 02:46:57;;;;;;;25.83;12.43;;;5.40;99.90;;;;;;5010381;28;20052;-78
2022/12/06 02:49:26;;;;;;;25.77;12.63;;;5.40;99.90;;;;;;5011179;28;20541;-78
2022/12/06 02:51:54;;;;;;;26.52;12.80;;;5.40;99.90;;;;;;5010996;28;20074;-78
2022/12/06 02:54:22;;;;;;;26.80;12.68;;;5.40;99.90;;;;;;5011069;28;20062;-78
2022/12/06 02:56:49;;;;;;;27.55;13.60;;;5.40;99.90;;;;;;5009516;28;20038;-78
2022/12/06 02:59:16;;;;;;;25.15;13.48;;;5.40;99.90;;;;;;5011254;28;20041;-78
2022/12/06 03:01:45;;;;;;;29.17;13.25;;;5.40;99.90;;;;;;5010687;28;20396;-78
2022/12/06 03:04:47;;;;;;;30.92;13.90;;;5.40;99.90;;;;;;5010454;28;20410;-78
2022/12/06 03:07:34;;;;;;;29.73;12.93;;;5.40;99.90;;;;;;5006210;28;20309;-78
2022/12/06 03:10:21;;;;;;;31.63;13.45;;;5.50;99.90;;;;;;4992518;28;20111;-78
2022/12/06 03:12:54;;;;;;;29.50;13.75;;;5.50;99.90;;;;;;4991534;28;20047;-78
2022/12/06 03:15:33;;;;;;;27.17;13.73;;;5.50;99.90;;;;;;5006028;28;20045;-78
2022/12/06 03:18:05;;;;;;;24.83;12.75;;;5.40;99.90;;;;;;4992475;28;20042;-78
2022/12/06 03:20:41;;;;;;;28.20;13.73;;;5.40;99.90;;;;;;5009737;28;20037;-78
2022/12/06 03:23:11;;;;;;;27.48;13.65;;;5.50;99.90;;;;;;5009648;28;20052;-79
2022/12/06 03:25:39;;;;;;;26.10;13.10;;;5.50;99.90;;;;;;5009817;28;20046;-78
2022/12/06 03:28:07;;;;;;;33.72;14.52;;;5.50;99.90;;;;;;5002563;28;20072;-78
2022/12/06 03:30:35;;;;;;;28.33;14.25;;;5.40;99.90;;;;;;4996028;28;20050;-78
2022/12/06 03:33:02;;;;;;;26.63;13.52;;;5.50;99.90;;;;;;5010490;28;20819;-78
2022/12/06 03:35:31;;;;;;;28.00;13.77;;;5.50;99.90;;;;;;5009148;28;20402;-78
2022/12/06 03:38:06;;;;;;;28.70;14.75;;;5.50;99.90;;;;;;5006781;28;20595;-78
2022/12/06 03:40:35;;;;;;;28.15;13.48;;;5.50;99.90;;;;;;5010556;28;20418;-78
2022/12/06 03:43:03;;;;;;;28.48;14.20;;;5.50;99.90;;;;;;5010130;28;20041;-78
2022/12/06 03:45:36;;;;;;;25.45;13.57;;;5.50;99.90;;;;;;5009359;28;20041;-78
2022/12/06 03:48:06;;;;;;;26.55;14.43;;;5.50;99.90;;;;;;4989905;28;20417;-78
2022/12/06 03:50:38;;;;;;;27.98;13.80;;;5.50;99.90;;;;;;5010984;28;20053;-78
2022/12/06 03:53:07;;;;;;;29.75;13.82;;;5.50;99.90;;;;;;5009306;28;20050;-78
2022/12/06 03:55:34;;;;;;;28.35;14.05;;;5.50;99.90;;;;;;4985261;28;20051;-78
2022/12/06 03:58:01;;;;;;;27.35;14.55;;;5.50;99.90;;;;;;5009320;28;20042;-78
2022/12/06 04:00:27;;;;;;;27.92;13.82;;;5.50;99.90;;;;;;5008708;28;20049;-78
2022/12/06 04:02:54;;;;;;;24.70;13.77;;;5.50;99.90;;;;;;5008764;28;20046;-78
2022/12/06 04:05:21;;;;;;;28.48;14.35;;;5.60;99.90;;;;;;5009354;28;20038;-78
2022/12/06 04:07:48;;;;;;;26.05;14.10;;;5.60;99.90;;;;;;5009191;28;20034;-78
2022/12/06 04:10:16;;;;;;;28.75;14.65;;;5.60;99.90;;;;;;5007779;28;20042;-78
2022/12/06 04:13:01;;;;;;;27.65;14.48;;;5.60;99.90;;;;;;5009569;28;20042;-78
2022/12/06 04:15:29;;;;;;;32.33;14.52;;;5.60;99.90;;;;;;5009139;28;20409;-78
2022/12/06 04:18:14;;;;;;;25.00;13.43;;;5.60;99.90;;;;;;5009560;28;20045;-78
2022/12/06 04:23:33;;;;;;;29.30;15.07;;;5.60;99.90;;;;;;5008991;28;20040;-78
2022/12/06 04:26:02;;;;;;;26.25;13.68;;;5.60;99.90;;;;;;5009420;28;20049;-78
2022/12/06 04:39:27;;;;;;;27.33;14.85;;;5.70;99.90;;;;;;5003682;28;20592;-78
2022/12/06 04:44:36;;;;;;;26.52;14.18;;;5.70;99.90;;;;;;4986364;28;20062;-78
2022/12/06 04:47:03;;;;;;;26.65;13.38;;;5.70;99.90;;;;;;4991765;28;20084;-78
2022/12/06 04:49:30;;;;;;;31.38;15.50;;;5.70;99.90;;;;;;4991098;28;20061;-78
2022/12/06 04:51:57;;;;;;;26.15;14.02;;;5.80;99.90;;;;;;5007644;28;20038;-78
2022/12/06 04:54:25;;;;;;;25.83;14.35;;;5.70;99.90;;;;;;5008748;28;20050;-78
2022/12/06 04:56:52;;;;;;;26.77;14.75;;;5.80;99.90;;;;;;5009356;28;20046;-78
2022/12/06 04:59:20;;;;;;;25.80;13.75;;;5.80;99.90;;;;;;5008076;28;20143;-78
2022/12/06 05:01:47;;;;;;;31.13;14.85;;;5.80;99.90;;;;;;5008291;28;20533;-78
2022/12/06 05:04:14;;;;;;;27.15;13.93;;;5.80;99.90;;;;;;5005335;28;20046;-78
2022/12/06 05:06:41;;;;;;;26.17;13.63;;;5.80;99.90;;;;;;5004757;28;20095;-79
2022/12/06 05:09:08;;;;;;;26.17;14.02;;;5.80;99.90;;;;;;5006941;28;20042;-80
2022/12/06 05:11:37;;;;;;;27.38;14.10;;;5.90;99.90;;;;;;5005754;28;20046;-80
2022/12/06 05:14:04;;;;;;;28.65;14.43;;;5.90;99.90;;;;;;5008741;28;20049;-79
2022/12/06 05:16:33;;;;;;;27.50;14.60;;;5.90;99.90;;;;;;5009175;28;20503;-79
2022/12/06 05:19:00;;;;;;;29.67;14.40;;;5.90;99.90;;;;;;5007946;28;20426;-81
2022/12/06 05:21:27;;;;;;;26.13;14.18;;;5.90;99.90;;;;;;5008126;28;20063;-81
2022/12/06 05:23:54;;;;;;;29.63;14.15;;;6.00;99.90;;;;;;5008056;28;20096;-81
2022/12/06 05:26:23;;;;;;;27.10;13.63;;;6.00;99.90;;;;;;5008407;28;20042;-79
2022/12/06 05:28:50;;;;;;;31.65;16.40;;;6.00;99.90;;;;;;5008819;28;20046;-79
2022/12/06 05:31:18;;;;;;;35.88;16.15;;;6.00;99.90;;;;;;5008563;28;20116;-80
2022/12/06 05:33:46;;;;;;;29.30;14.48;;;6.00;99.90;;;;;;5007358;28;20048;-79
2022/12/06 05:36:15;;;;;;;27.73;14.93;;;6.00;99.90;;;;;;5009013;28;20046;-80
2022/12/06 05:38:42;;;;;;;28.30;15.43;;;6.00;99.90;;;;;;4998415;28;20057;-80
2022/12/06 05:41:08;;;;;;;25.92;14.40;;;6.00;99.90;;;;;;5007786;28;20050;-79
2022/12/06 05:43:35;;;;;;;28.65;15.02;;;6.10;99.90;;;;;;4990329;28;20050;-80
2022/12/06 05:46:02;;;;;;;30.10;15.10;;;6.10;99.90;;;;;;5008180;28;20042;-79
2022/12/06 05:48:29;;;;;;;31.75;14.45;;;6.10;99.90;;;;;;5007993;28;20402;-79
2022/12/06 05:50:58;;;;;;;31.05;15.10;;;6.10;99.90;;;;;;4988990;28;20057;-78
2022/12/06 05:53:25;;;;;;;30.77;15.43;;;6.10;99.90;;;;;;5009156;28;20429;-79
2022/12/06 05:55:52;;;;;;;34.30;16.75;;;6.10;99.90;;;;;;5011774;28;20368;-79
2022/12/06 05:58:18;;;;;;;30.75;15.18;;;6.10;99.90;;;;;;5012133;28;20046;-79
2022/12/06 06:00:47;;;;;;;35.03;17.00;;;6.10;99.90;;;;;;5009078;28;20053;-79
2022/12/06 06:03:14;;;;;;;36.20;15.75;;;6.20;99.90;;;;;;5010856;28;20100;-80
2022/12/06 06:05:45;;;;;;;31.80;15.52;;;6.20;99.90;;;;;;5011188;28;20050;-80
2022/12/06 06:08:14;;;;;;;31.08;15.50;;;6.20;99.90;;;;;;5011344;28;20046;-81
2022/12/06 06:10:41;;;;;;;30.27;15.65;;;6.20;99.90;;;;;;5011485;28;20165;-80
2022/12/06 06:13:08;;;;;;;31.88;15.10;;;6.20;99.90;;;;;;5011704;28;20053;-80
2022/12/06 06:15:35;;;;;;;30.90;15.25;;;6.20;99.90;;;;;;5010881;28;20088;-80
2022/12/06 06:18:02;;;;;;;27.98;14.88;;;6.30;99.90;;;;;;5011361;28;20041;-80
2022/12/06 06:20:29;;;;;;;27.88;14.57;;;6.30;99.90;;;;;;5011399;28;20054;-80
2022/12/06 06:22:55;;;;;;;28.90;15.25;;;6.30;99.90;;;;;;5011404;28;20065;-80
2022/12/06 06:25:24;;;;;;;27.30;13.68;;;6.30;99.90;;;;;;5011767;28;20056;-81
2022/12/06 06:27:51;;;;;;;25.33;13.13;;;6.30;99.90;;;;;;5011559;28;20525;-81
2022/12/06 06:30:18;;;;;;;26.00;14.05;;;6.30;99.90;;;;;;5008370;28;20038;-82
2022/12/06 06:32:45;;;;;;;26.50;13.07;;;6.40;99.90;;;;;;5003690;28;20054;-79
2022/12/06 06:35:11;;;;;;;24.92;13.05;;;6.30;99.90;;;;;;4989270;28;20400;-79
2022/12/06 06:37:38;;;;;;;28.15;13.55;;;6.40;99.90;;;;;;5006391;28;20037;-80
2022/12/06 06:40:10;;;;;;;24.23;12.50;;;6.40;99.90;;;;;;5007439;28;20050;-79
2022/12/06 06:42:38;;;;;;;;;;;6.40;99.90;;;;;;5010478;28;20490;-78
2022/12/06 06:45:06;;;;;;;25.08;13.70;;;6.40;99.90;;;;;;5002759;28;19925;-78
2022/12/06 06:47:33;;;;;;;27.92;14.15;;;6.40;99.90;;;;;;5010708;28;20046;-79
2022/12/06 06:50:00;;;;;;;29.05;13.65;;;6.40;99.90;;;;;;5011402;28;20053;-78
2022/12/06 06:52:27;;;;;;;27.40;14.68;;;6.50;99.90;;;;;;5011177;28;20052;-79
2022/12/06 06:54:54;;;;;;;28.23;13.80;;;6.50;99.90;;;;;;5010082;28;20267;-79
2022/12/06 06:57:20;;;;;;;31.77;14.77;;;6.50;99.90;;;;;;5010752;28;20285;-78
2022/12/06 06:59:49;;;;;;;25.40;13.15;;;6.50;99.90;;;;;;5005183;28;20034;-79
2022/12/06 07:02:16;;;;;;;29.27;14.50;;;6.50;99.90;;;;;;5010622;28;20521;-78
2022/12/06 07:04:44;;;;;;;29.60;14.55;;;6.50;99.90;;;;;;5009572;28;20060;-78
2022/12/06 07:07:12;;;;;;;28.42;13.60;;;6.60;99.90;;;;;;5010441;28;20077;-78
2022/12/06 07:09:39;;;;;;;26.38;13.18;;;6.60;99.90;;;;;;5003909;28;20039;-78
2022/12/06 07:12:06;;;;;;;25.40;13.07;;;6.60;99.90;;;;;;5006282;28;20597;-79
2022/12/06 07:14:33;;;;;;;24.83;13.05;;;6.60;99.90;;;;;;5009540;28;20048;-78
2022/12/06 07:17:01;;;;;;;29.65;14.10;;;6.60;99.90;;;;;;5010511;28;20140;-79
2022/12/06 07:19:28;;;;;;;29.08;14.10;;;6.60;99.90;;;;;;5009856;28;20069;-78
2022/12/06 07:21:55;;;;;;;25.58;12.73;;;6.60;99.90;;;;;;4990828;28;20056;-78
2022/12/06 07:24:22;;;;;;;25.85;12.43;;;6.60;99.90;;;;;;5010272;28;20045;-78
2022/12/06 07:26:49;;;;;;;27.50;13.35;;;6.70;99.90;;;;;;5007824;28;20046;-78
2022/12/06 07:29:16;;;;;;;25.70;13.27;;;6.70;99.90;;;;;;5005512;28;20105;-78
2022/12/06 07:31:43;;;;;;;25.23;12.95;;;6.70;99.90;;;;;;5002887;28;20049;-79
2022/12/06 07:34:11;;;;;;;28.15;13.23;;;6.70;99.90;;;;;;5006940;28;20140;-79
2022/12/06 07:36:38;;;;;;;29.08;13.52;;;6.70;99.90;;;;;;5008297;28;20048;-80
2022/12/06 07:39:05;;;;;;;24.75;13.00;;;6.70;99.90;;;;;;4998496;28;20048;-77
2022/12/06 07:49:58;;;;;;;30.33;14.48;;;6.80;99.90;;;;;;4969443;28;20145;-79
2022/12/06 07:52:25;;;;;;;25.30;13.25;;;6.80;99.90;;;;;;4978257;28;20057;-80
2022/12/06 07:54:52;;;;;;;30.25;13.43;;;6.80;99.90;;;;;;4977559;28;20102;-79
2022/12/06 07:57:20;;;;;;;28.77;14.77;;;6.80;99.90;;;;;;4970670;28;20058;-83
2022/12/06 07:59:47;;;;;;;30.65;14.43;;;6.80;99.90;;;;;;4942761;28;20452;-81
2022/12/06 08:02:18;;;;;;;28.73;14.45;;;6.80;99.90;;;;;;4947409;29;20043;-81
2022/12/06 08:04:45;;;;;;;28.95;14.73;;;6.90;99.90;;;;;;4943592;29;20039;-82
2022/12/06 08:07:14;;;;;;;29.17;13.55;;;6.90;99.90;;;;;;4943601;29;20516;-84
2022/12/06 08:09:41;;;;;;;35.05;15.65;;;6.90;99.90;;;;;;4950443;28;20039;-83
2022/12/06 08:12:09;;;;;;;33.78;15.88;;;6.90;99.90;;;;;;4950294;29;20051;-83
2022/12/06 08:14:36;;;;;;;34.47;17.63;;;6.90;99.90;;;;;;4949142;28;20043;-83
2022/12/06 08:17:05;;;;;;;34.67;18.10;;;6.90;99.90;;;;;;4947662;28;20057;-82
2022/12/06 08:19:32;;;;;;;34.92;17.35;;;7.00;99.90;;;;;;4940970;28;20051;-85
2022/12/06 08:21:59;;;;;;;34.78;16.67;;;7.00;99.90;;;;;;4950274;28;20051;-86
2022/12/06 08:24:28;;;;;;;29.45;14.95;;;7.00;99.90;;;;;;4947764;28;20043;-83
2022/12/06 08:26:55;;;;;;;31.63;14.80;;;7.00;99.90;;;;;;4951491;28;20039;-86
2022/12/06 08:29:21;;;;;;;31.08;14.40;;;7.00;99.90;;;;;;4955768;28;20039;-82
2022/12/06 08:31:49;;;;;;;31.98;14.52;;;7.00;99.90;;;;;;4951265;29;20042;-83
2022/12/06 08:34:16;;;;;;;30.73;13.77;;;7.00;99.90;;;;;;4948883;28;20035;-83
2022/12/06 08:36:43;;;;;;;27.58;13.20;;;7.10;99.90;;;;;;4966362;28;20396;-84
2022/12/06 08:39:11;;;;;;;27.52;13.00;;;7.00;99.90;;;;;;4952429;28;20043;-82
2022/12/06 08:44:25;;;;;;;30.20;12.38;;;7.10;99.90;;;;;;4945240;28;20051;-82
2022/12/06 08:46:53;;;;;;;28.20;13.23;;;7.10;99.90;;;;;;4945361;28;20381;-82
2022/12/06 08:49:20;;;;;;;22.73;12.07;;;7.10;99.90;;;;;;4957389;28;20122;-82
2022/12/06 08:51:47;;;;;;;25.65;12.13;;;7.10;99.90;;;;;;4947426;28;20051;-82
2022/12/06 08:54:17;;;;;;;24.13;13.38;;;7.10;99.90;;;;;;4953589;28;20525;-82
2022/12/06 08:56:45;;;;;;;19.13;10.63;;;7.20;99.90;;;;;;4945723;28;20118;-82
2022/12/06 08:59:12;;;;;;;20.55;11.65;;;7.20;99.90;;;;;;4954830;28;20050;-83
2022/12/06 09:01:39;;;;;;;23.55;11.07;;;7.20;99.90;;;;;;4948007;28;20472;-82
2022/12/06 09:04:08;;;;;;;19.23;10.43;;;7.20;99.90;;;;;;4949450;28;20078;-82
2022/12/06 09:06:37;;;;;;;16.30;9.57;;;7.20;99.90;;;;;;4948966;28;20046;-82
2022/12/06 09:09:04;;;;;;;19.38;9.88;;;7.20;99.90;;;;;;4957483;28;20046;-82
2022/12/06 09:11:30;;;;;;;21.42;10.68;;;7.20;99.90;;;;;;4956219;28;20054;-82
2022/12/06 09:13:59;;;;;;;22.40;9.68;;;7.20;99.90;;;;;;4945916;28;20606;-82
2022/12/06 09:16:26;;;;;;;18.98;9.98;;;7.30;99.90;;;;;;4949501;28;20039;-82
2022/12/06 09:18:53;;;;;;;18.60;9.35;;;7.30;99.90;;;;;;4949101;28;20047;-82
2022/12/06 09:21:21;;;;;;;20.73;9.57;;;7.20;99.90;;;;;;4952014;28;20055;-82
2022/12/06 09:23:48;;;;;;;18.88;9.55;;;7.20;99.90;;;;;;4933917;29;20100;-82
2022/12/06 09:26:18;;;;;;;19.35;10.30;;;7.30;99.90;;;;;;4949204;28;20053;-82
2022/12/06 09:28:49;;;;;;;22.27;10.23;;;7.30;99.90;;;;;;4968995;28;20046;-82
2022/12/06 09:31:18;;;;;;;18.75;9.60;;;7.30;99.90;;;;;;4960697;28;20043;-82
2022/12/06 09:33:45;;;;;;;20.42;9.93;;;7.30;99.90;;;;;;4948041;28;20507;-82
2022/12/06 09:36:14;;;;;;;19.67;9.85;;;7.30;99.90;;;;;;4959537;28;20051;-82
2022/12/06 09:38:42;;;;;;;21.45;9.82;;;7.40;99.90;;;;;;4945975;28;20543;-82
2022/12/06 09:41:17;;;;;;;16.42;8.65;;;7.30;99.90;;;;;;4966181;28;20043;-82
2022/12/06 09:43:56;;;;;;;18.35;9.45;;;7.30;99.90;;;;;;4955742;28;20122;-82
2022/12/06 09:46:38;;;;;;;20.80;10.85;;;7.30;99.90;;;;;;4955998;28;20446;-81
2022/12/06 09:49:18;;;;;;;16.67;8.52;;;7.40;99.90;;;;;;4967462;28;20464;-83
2022/12/06 09:52:06;;;;;;;19.63;9.38;;;7.40;99.90;;;;;;4992118;28;20050;-83
2022/12/06 09:54:48;;;;;;;18.05;8.82;;;7.30;99.90;;;;;;4984786;28;20098;-83
2022/12/06 09:57:21;;;;;;;17.23;9.00;;;7.40;99.90;;;;;;4985629;28;20099;-81
2022/12/06 09:59:56;;;;;;;15.30;8.60;;;7.40;99.90;;;;;;4962347;28;20045;-81
2022/12/06 10:02:43;;;;;;;18.55;8.73;;;7.40;99.90;;;;;;4961531;28;20053;-80
2022/12/06 10:05:27;;;;;;;13.65;7.47;;;7.40;99.90;;;;;;4947196;28;20071;-80
2022/12/06 10:08:01;;;;;;;16.90;8.18;;;7.40;99.90;;;;;;4952187;28;20106;-80
2022/12/06 10:10:35;;;;;;;18.70;8.48;;;7.40;99.90;;;;;;4953603;28;20050;-80
2022/12/06 10:13:07;;;;;;;15.55;8.57;;;7.40;99.90;;;;;;4953635;28;20050;-81
2022/12/06 10:15:46;;;;;;;17.98;8.95;;;7.40;99.90;;;;;;4951103;28;20511;-81
2022/12/06 10:18:38;;;;;;;14.88;8.13;;;7.50;99.90;;;;;;4959580;28;20713;-80
2022/12/06 10:21:07;;;;;;;;;;;7.50;99.90;;;;;;4945225;28;20035;-81
2022/12/06 10:23:46;;;;;;;17.45;7.85;;;7.50;99.90;;;;;;4956064;28;19925;-80
2022/12/06 10:26:14;;;;;;;12.68;7.40;;;7.50;99.90;;;;;;4962232;28;20055;-81
2022/12/06 10:28:47;;;;;;;13.55;8.05;;;7.50;99.90;;;;;;4948134;29;20054;-80
2022/12/06 10:31:22;;;;;;;14.38;7.80;;;7.50;99.90;;;;;;4943262;28;20551;-80
2022/12/06 10:33:55;;;;;;;14.95;7.57;;;7.50;99.90;;;;;;4965869;28;20042;-80
2022/12/06 10:36:37;;;;;;;15.10;8.38;;;7.50;99.90;;;;;;4952990;28;20678;-81
2022/12/06 10:39:12;;;;;;;14.00;7.25;;;7.60;99.90;;;;;;4952954;28;20118;-80
2022/12/06 10:41:43;;;;;;;15.27;7.32;;;7.60;99.90;;;;;;4953830;28;20074;-81
2022/12/06 10:44:16;;;;;;;16.52;7.68;;;7.60;99.90;;;;;;4949999;28;20419;-80
2022/12/06 10:47:03;;;;;;;14.40;7.00;;;7.60;99.90;;;;;;4950717;28;20051;-81
2022/12/06 10:49:38;;;;;;;14.82;7.45;;;7.60;99.90;;;;;;4950056;28;20039;-80
2022/12/06 10:52:14;;;;;;;16.73;7.75;;;7.60;99.90;;;;;;4950835;28;20046;-80
2022/12/06 10:54:43;;;;;;;14.73;7.75;;;7.60;99.90;;;;;;4959171;28;20479;-81
2022/12/06 10:57:15;;;;;;;12.90;7.70;;;7.60;99.90;;;;;;4950128;28;20045;-80
2022/12/06 10:59:47;;;;;;;18.15;8.68;;;7.70;99.90;;;;;;4951587;28;20571;-81
2022/12/06 11:02:23;;;;;;;15.77;8.30;;;7.70;99.90;;;;;;4951999;28;20562;-81
2022/12/06 11:04:53;;;;;;;13.88;7.50;;;7.70;99.90;;;;;;4958237;28;20047;-80
2022/12/06 11:07:22;;;;;;;15.93;8.57;;;7.70;99.90;;;;;;4939301;28;20126;-81
2022/12/06 11:09:51;;;;;;;14.75;8.25;;;7.70;99.90;;;;;;4948639;28;20400;-80
2022/12/06 11:12:23;;;;;;;16.52;7.93;;;7.70;99.90;;;;;;4949895;28;20043;-80
2022/12/06 11:14:54;;;;;;;15.35;7.18;;;7.70;99.90;;;;;;4952801;28;20042;-80
2022/12/06 11:17:24;;;;;;;13.60;6.93;;;7.70;99.90;;;;;;4953214;28;20532;-80
2022/12/06 11:19:56;;;;;;;15.13;6.93;;;7.80;99.90;;;;;;4959247;28;20058;-79
2022/12/06 11:22:29;;;;;;;11.35;6.20;;;7.80;99.90;;;;;;4951407;29;20492;-79
2022/12/06 11:25:02;;;;;;;13.82;6.57;;;7.80;99.90;;;;;;4950066;28;20126;-79
2022/12/06 11:27:33;;;;;;;14.52;6.95;;;7.80;99.90;;;;;;4950338;28;20051;-79
2022/12/06 11:30:02;;;;;;;12.13;6.45;;;7.80;99.90;;;;;;4952257;28;20046;-79
2022/12/06 11:32:29;;;;;;;13.10;7.10;;;7.80;99.90;;;;;;4963775;28;20039;-79
2022/12/06 11:34:58;;;;;;;12.60;6.45;;;7.80;99.90;;;;;;4970768;28;20575;-79
2022/12/06 11:37:28;;;;;;;13.23;6.45;;;7.80;99.90;;;;;;4953438;28;20081;-79
2022/12/06 11:40:02;;;;;;;12.68;6.22;;;7.80;99.90;;;;;;4960587;28;20134;-79
2022/12/06 11:42:29;;;;;;;10.82;6.13;;;7.90;99.90;;;;;;4952134;29;20043;-79
2022/12/06 11:45:00;;;;;;;10.20;5.38;;;7.90;99.90;;;;;;4951328;28;20046;-79
2022/12/06 11:47:27;;;;;;;;;;;7.90;99.90;;;;;;4955703;28;20051;-83
2022/12/06 11:49:55;;;;;;;8.57;4.97;;;7.90;99.90;;;;;;4961035;28;20351;-79
2022/12/06 11:52:28;;;;;;;10.38;5.38;;;7.90;99.90;;;;;;4956913;28;20126;-79
2022/12/06 11:54:58;;;;;;;9.63;5.63;;;7.90;99.90;;;;;;4955346;28;20043;-81
2022/12/06 11:57:28;;;;;;;9.07;5.68;;;7.90;99.90;;;;;;4947533;28;20570;-80
2022/12/06 12:00:12;;;;;;;12.68;5.97;;;7.90;99.90;;;;;;4952194;28;20085;-79
2022/12/06 12:02:40;;;;;;;10.98;6.30;;;8.00;99.90;;;;;;4959379;28;20062;-79
2022/12/06 12:05:13;;;;;;;9.13;5.60;;;8.00;99.90;;;;;;4944872;28;20503;-80
2022/12/06 12:07:44;;;;;;;11.43;6.25;;;8.00;99.90;;;;;;4960169;28;20132;-80
2022/12/06 12:10:27;;;;;;;10.13;5.80;;;8.00;99.90;;;;;;4946409;28;20061;-78
2022/12/06 12:15:54;;;;;;;10.35;5.53;;;8.00;99.90;;;;;;4907493;29;20103;-78
2022/12/06 12:18:23;;;;;;;10.18;6.22;;;8.00;99.90;;;;;;4917046;29;20187;-79
2022/12/06 12:20:51;;;;;;;12.82;6.28;;;8.00;99.90;;;;;;4928467;29;20534;-78
2022/12/06 12:23:22;;;;;;;9.93;5.80;;;8.20;99.90;;;;;;4955704;28;20118;-78
2022/12/06 12:25:58;;;;;;;;;;;8.00;99.90;;;;;;4954620;28;20098;-79
2022/12/06 12:28:27;;;;;;;9.70;5.15;;;8.00;99.90;;;;;;4957244;28;19965;-79
2022/12/06 12:30:55;;;;;;;10.43;5.68;;;8.00;99.90;;;;;;4926212;28;20518;-78
2022/12/06 12:33:23;;;;;;;11.80;6.18;;;8.10;99.90;;;;;;4956983;28;20093;-78
2022/12/06 12:36:09;;;;;;;11.25;5.95;;;8.10;99.90;;;;;;4961008;28;20042;-78
2022/12/06 12:38:42;;;;;;;13.25;5.15;;;8.00;99.90;;;;;;4960244;28;20114;-78
2022/12/06 12:41:26;;;;;;;10.75;5.00;;;8.10;99.90;;;;;;4944387;28;20397;-78
2022/12/06 12:43:59;;;;;;;7.78;4.35;;;8.00;99.90;;;;;;4936118;28;20109;-79
2022/12/06 12:46:27;;;;;;;10.77;4.90;;;8.00;99.90;;;;;;4958856;28;20046;-78
2022/12/06 12:48:55;;;;;;;9.63;4.95;;;8.00;99.90;;;;;;4950666;28;20573;-78
2022/12/06 12:51:27;;;;;;;8.05;4.82;;;7.90;99.90;;;;;;4964450;28;20538;-79
2022/12/06 12:53:57;;;;;;;9.75;4.38;;;7.90;99.90;;;;;;4954235;28;20043;-78
2022/12/06 12:56:24;;;;;;;6.70;4.35;;;8.00;99.90;;;;;;4970448;28;20051;-79
2022/12/06 12:58:53;;;;;;;9.35;4.75;;;7.80;99.90;;;;;;4949477;28;20070;-79
2022/12/06 13:01:30;;;;;;;10.07;4.70;;;7.80;99.90;;;;;;4956410;28;20043;-78
2022/12/06 13:04:01;;;;;;;8.57;4.50;;;7.80;99.90;;;;;;4964040;28;20051;-79
2022/12/06 13:06:34;;;;;;;11.30;5.70;;;7.80;99.90;;;;;;4948186;28;20055;-78
2022/12/06 13:09:04;;;;;;;10.73;6.05;;;7.70;99.90;;;;;;4962975;28;20088;-79
2022/12/06 13:11:32;;;;;;;13.33;6.23;;;7.70;99.90;;;;;;4947368;28;20064;-80
2022/12/06 13:14:00;;;;;;;12.43;6.00;;;7.70;99.90;;;;;;4955883;28;20164;-79
2022/12/06 13:16:32;;;;;;;11.07;6.63;;;7.70;99.90;;;;;;4969590;28;20052;-80
2022/12/06 13:19:00;;;;;;;11.52;6.63;;;7.80;99.90;;;;;;4947935;28;20459;-79
2022/12/06 13:21:31;;;;;;;13.95;7.00;;;7.80;99.90;;;;;;4943897;28;20039;-79
2022/12/06 13:24:05;;;;;;;10.98;6.40;;;7.80;99.90;;;;;;4949058;28;20054;-80
2022/12/06 13:26:34;;;;;;;13.10;6.72;;;7.80;99.90;;;;;;4940409;29;20071;-80
2022/12/06 13:29:03;;;;;;;11.02;6.47;;;7.80;99.90;;;;;;4936999;29;20114;-79